Time;durP1;ratioP1;P1;durP2;ratioP2;P2;SDS_P1;SDS_P2;PMS_P1;PMS_P2;Temp;Humidity;BMP_temperature;BMP_pressure;BME280_temperature;BME280_humidity;BME280_pressure;Samples;Min_cycle;Max_cycle;Signal;HPM_P1;HPM_P2
2023/03/05 00:02:02;;;;;;;;;4.33;4.33;;;;;7.59;81.30;102106.56;5121982;27;45440;-62
2023/03/05 00:04:27;;;;;;;;;7.67;5.00;;;;;7.54;81.26;102105.59;5121982;27;45314;-62
2023/03/05 00:06:54;;;;;;;;;4.67;4.33;;;;;7.50;80.84;102100.31;5121762;27;45355;-62
2023/03/05 00:09:20;;;;;;;;;5.00;5.00;;;;;7.48;81.59;102103.81;5122303;27;45411;-62
2023/03/05 00:11:45;;;;;;;;;5.00;4.67;;;;;7.44;80.90;102100.25;5121820;27;46030;-62
2023/03/05 00:14:11;;;;;;;;;3.33;3.33;;;;;7.44;80.65;102107.25;5121817;27;45304;-62
2023/03/05 00:16:37;;;;;;;;;4.00;4.00;;;;;7.40;81.41;102102.84;5121941;27;45323;-62
2023/03/05 00:19:02;;;;;;;;;5.00;5.00;;;;;7.42;81.05;102104.63;5122065;27;45294;-62
2023/03/05 00:21:46;;;;;;;;;6.00;4.33;;;;;7.30;80.82;102099.22;5121719;27;47207;-62
2023/03/05 00:24:16;;;;;;;;;5.00;3.67;;;;;7.30;81.07;102107.97;5121522;27;45471;-62
2023/03/05 00:26:42;;;;;;;;;3.00;3.00;;;;;7.30;81.32;102102.72;5121729;27;45249;-62
2023/03/05 00:29:10;;;;;;;;;6.67;6.00;;;;;7.32;81.03;102103.63;5121930;27;45250;-62
2023/03/05 00:31:36;;;;;;;;;7.67;5.67;;;;;7.33;81.19;102104.47;5121577;27;46126;-62
2023/03/05 00:34:05;;;;;;;;;6.00;6.00;;;;;7.01;80.59;102041.22;5121435;27;45317;-62
2023/03/05 00:36:31;;;;;;;;;5.00;5.00;;;;;7.34;80.93;102094.91;5121582;27;45174;-62
2023/03/05 00:38:57;;;;;;;;;7.00;7.00;;;;;7.29;80.76;102084.34;5121619;27;45477;-62
2023/03/05 00:41:23;;;;;;;;;14.33;11.00;;;;;7.33;81.05;102086.13;5121346;27;46436;-62
2023/03/05 00:43:48;;;;;;;;;4.67;4.67;;;;;7.11;80.85;102051.81;5121227;27;45355;-62
2023/03/05 00:46:14;;;;;;;;;11.00;5.67;;;;;7.35;81.66;102089.69;5121613;27;45364;-62
2023/03/05 00:48:39;;;;;;;;;7.67;5.67;;;;;7.28;81.68;102073.00;5121652;27;45447;-62
2023/03/05 00:51:05;;;;;;;;;6.67;4.33;;;;;7.37;81.81;102080.09;5119651;27;46716;-64
2023/03/05 00:53:31;;;;;;;;;7.67;5.33;;;;;7.35;81.86;102073.97;5121345;27;45491;-64
2023/03/05 00:55:56;;;;;;;;;9.00;7.00;;;;;7.31;81.61;102059.94;5121291;27;45428;-64
2023/03/05 00:58:22;;;;;;;;;7.67;5.67;;;;;7.36;81.46;102066.97;5121479;27;45310;-64
2023/03/05 01:00:50;;;;;;;;;10.33;8.00;;;;;7.29;81.29;102058.13;5120943;27;47184;-65
2023/03/05 01:03:17;;;;;;;;;5.00;5.00;;;;;7.35;81.28;102071.34;5120939;27;45258;-64
2023/03/05 01:05:42;;;;;;;;;6.67;6.67;;;;;7.28;81.48;102064.25;5121261;27;45386;-64
2023/03/05 01:08:08;;;;;;;;;13.67;9.67;;;;;7.25;81.35;102051.13;5121158;27;45206;-65
2023/03/05 01:10:34;;;;;;;;;9.33;8.67;;;;;7.19;81.46;102045.78;5120681;27;45608;-64
2023/03/05 01:13:00;;;;;;;;;10.67;8.00;;;;;7.22;81.70;102061.53;5120474;27;45319;-64
2023/03/05 01:15:25;;;;;;;;;10.00;9.33;;;;;7.14;82.02;102050.97;5120476;27;45441;-64
2023/03/05 01:17:51;;;;;;;;;14.00;11.67;;;;;7.12;81.96;102053.59;5120955;27;45358;-64
2023/03/05 01:20:19;;;;;;;;;22.00;18.67;;;;;7.12;82.26;102043.09;5121023;27;46518;-65
2023/03/05 01:22:44;;;;;;;;;14.00;14.00;;;;;7.09;81.09;102045.69;5120124;27;45552;-63
2023/03/05 01:25:12;;;;;;;;;21.33;17.33;;;;;6.93;81.22;102028.03;5120521;27;45322;-63
2023/03/05 01:27:37;;;;;;;;;13.67;12.67;;;;;6.95;81.89;102039.41;5120101;27;45455;-63
2023/03/05 01:30:04;;;;;;;;;40.67;36.00;;;;;6.92;82.15;102034.13;5118543;27;46659;-63
2023/03/05 01:32:29;;;;;;;;;20.00;18.67;;;;;6.86;82.47;102023.56;5120322;27;45236;-64
2023/03/05 01:34:54;;;;;;;;;16.67;13.67;;;;;6.89;82.44;102021.00;5119801;27;45480;-63
2023/03/05 01:37:20;;;;;;;;;17.33;13.33;;;;;6.93;82.67;102025.41;5120595;27;45307;-63
2023/03/05 01:39:45;;;;;;;;;15.00;14.67;;;;;6.88;82.55;102017.47;5118092;27;45591;-63
2023/03/05 01:42:10;;;;;;;;;12.00;12.00;;;;;6.91;82.00;102016.66;5119553;27;45394;-64
2023/03/05 01:44:36;;;;;;;;;19.33;15.33;;;;;6.92;81.32;102015.78;5119570;27;45366;-64
2023/03/05 01:47:01;;;;;;;;;16.00;12.33;;;;;6.82;81.80;101995.59;5119884;27;45386;-63
2023/03/05 01:49:35;;;;;;;;;16.33;13.33;;;;;6.85;81.72;102013.94;5119696;27;46563;-64
2023/03/05 01:52:16;;;;;;;;;12.33;12.33;;;;;6.80;82.49;102003.44;5118324;27;45463;-64
2023/03/05 01:54:41;;;;;;;;;12.33;12.00;;;;;6.89;82.86;102013.13;5119773;27;45458;-63
2023/03/05 01:57:12;;;;;;;;;13.33;10.00;;;;;6.95;82.68;102003.59;5120358;27;45402;-64
2023/03/05 01:59:41;;;;;;;;;16.00;12.00;;;;;6.87;82.19;101965.09;5120066;27;46565;-64
2023/03/05 02:02:07;;;;;;;;;11.00;11.00;;;;;7.10;82.48;101996.81;5120051;27;45392;-64
2023/03/05 02:04:40;;;;;;;;;15.00;13.33;;;;;7.14;81.72;102002.13;5120126;27;45460;-64
2023/03/05 02:07:06;;;;;;;;;19.33;12.33;;;;;7.10;81.96;101984.59;5119188;27;45540;-64
2023/03/05 02:09:31;;;;;;;;;23.00;13.67;;;;;7.21;81.89;102000.44;5119263;27;45477;-64
2023/03/05 02:11:57;;;;;;;;;13.67;11.67;;;;;7.15;81.87;101982.03;5119982;27;45318;-64
2023/03/05 02:14:24;;;;;;;;;17.33;15.00;;;;;7.29;81.59;101992.66;5120008;27;45272;-63
2023/03/05 02:16:50;;;;;;;;;16.67;13.67;;;;;7.30;81.63;101989.16;5120039;27;45452;-64
2023/03/05 02:19:16;;;;;;;;;20.33;19.00;;;;;7.05;81.44;101941.75;5118988;27;46862;-64
2023/03/05 02:21:44;;;;;;;;;17.33;17.33;;;;;7.27;81.31;101976.03;5119704;27;45331;-64
2023/03/05 02:24:14;;;;;;;;;25.33;24.33;;;;;7.26;81.42;101977.81;5119735;27;45323;-64
2023/03/05 02:26:41;;;;;;;;;25.67;23.67;;;;;7.32;81.70;101980.47;5119722;27;45351;-64
2023/03/05 02:29:09;;;;;;;;;31.67;21.00;;;;;7.29;81.18;101975.22;5119486;27;47146;-65
2023/03/05 02:31:35;;;;;;;;;25.00;20.67;;;;;7.35;81.33;101974.41;5118229;27;45597;-63
2023/03/05 02:34:00;;;;;;;;;23.00;21.00;;;;;7.27;81.66;101973.44;5119748;27;45359;-63
2023/03/05 02:36:26;;;;;;;;;34.00;26.67;;;;;7.22;81.11;101962.00;5119839;27;45375;-64
2023/03/05 02:38:52;;;;;;;;;25.00;23.67;;;;;7.26;81.38;101962.09;5119339;27;45355;-64
2023/03/05 02:41:18;;;;;;;;;27.00;23.67;;;;;7.30;81.63;101963.88;5119871;27;45457;-64
2023/03/05 02:43:44;;;;;;;;;23.33;18.67;;;;;7.29;80.79;101963.81;5119828;27;45398;-64
2023/03/05 02:46:09;;;;;;;;;27.33;21.00;;;;;7.24;81.17;101953.31;5120039;27;45143;-64
2023/03/05 02:48:35;;;;;;;;;17.00;14.00;;;;;7.21;81.34;101950.66;5119581;27;47363;-63
2023/03/05 02:51:03;;;;;;;;;66.75;55.50;;;;;7.22;81.21;101943.66;5111863;27;45399;-64
2023/03/05 02:53:28;;;;;;;;;38.33;29.33;;;;;7.17;81.78;101932.28;5119583;27;45480;-63
2023/03/05 02:55:54;;;;;;;;;20.00;18.33;;;;;7.25;81.30;101938.50;5119270;27;45486;-64
2023/03/05 02:58:19;;;;;;;;;25.33;20.00;;;;;7.25;81.46;101943.72;5119550;27;45410;-63
2023/03/05 03:00:47;;;;;;;;;25.67;20.00;;;;;7.20;80.97;101942.78;5119378;27;45600;-64
2023/03/05 03:03:13;;;;;;;;;27.33;16.67;;;;;7.19;81.42;101943.63;5119495;27;45301;-64
2023/03/05 03:05:39;;;;;;;;;20.67;19.67;;;;;7.15;81.48;101940.13;5119331;27;45402;-64
2023/03/05 03:08:04;;;;;;;;;24.33;18.67;;;;;7.16;81.93;101936.66;5119086;27;47146;-63
2023/03/05 03:10:30;;;;;;;;;18.00;15.00;;;;;7.18;81.63;101942.78;5119605;27;45570;-65
2023/03/05 03:12:56;;;;;;;;;23.67;22.00;;;;;7.17;81.91;101935.75;5119735;27;45779;-64
2023/03/05 03:15:21;;;;;;;;;22.00;18.33;;;;;7.14;81.73;101920.03;5119474;27;45411;-64
2023/03/05 03:17:47;;;;;;;;;21.00;20.67;;;;;7.15;81.49;101922.66;5118985;27;46142;-64
2023/03/05 03:20:15;;;;;;;;;25.67;23.00;;;;;7.22;81.31;101923.63;5111706;27;45474;-64
2023/03/05 03:22:43;;;;;;;;;30.33;21.00;;;;;7.22;81.63;101922.72;5119198;27;45455;-64
2023/03/05 03:25:09;;;;;;;;;22.00;20.00;;;;;7.23;81.43;101920.13;5119614;27;45592;-64
2023/03/05 03:27:35;;;;;;;;;27.67;23.00;;;;;7.19;81.40;101910.50;5118720;27;46607;-64
2023/03/05 03:30:03;;;;;;;;;25.33;21.67;;;;;7.19;81.18;101906.97;5119280;27;45523;-64
2023/03/05 03:32:29;;;;;;;;;24.33;18.33;;;;;7.17;81.78;101903.47;5124768;27;45494;-64
2023/03/05 03:34:55;;;;;;;;;25.67;20.33;;;;;6.95;81.71;101869.19;5119114;27;45338;-64
2023/03/05 03:37:20;;;;;;;;;22.67;20.67;;;;;7.06;80.78;101900.75;5118890;27;45217;-64
2023/03/05 03:39:46;;;;;;;;;18.00;16.00;;;;;6.75;81.65;101856.78;5118980;27;45231;-64
2023/03/05 03:42:11;;;;;;;;;28.33;22.67;;;;;6.98;82.16;101895.41;5118862;27;45618;-63
2023/03/05 03:44:36;;;;;;;;;22.67;19.67;;;;;6.96;82.61;101881.44;5119092;27;45441;-64
2023/03/05 03:47:02;;;;;;;;;18.00;18.00;;;;;7.04;81.95;101889.38;5118126;27;46713;-64
2023/03/05 03:49:27;;;;;;;;;30.33;19.00;;;;;7.03;82.07;101878.03;5118782;27;45362;-64
2023/03/05 03:51:53;;;;;;;;;21.67;17.33;;;;;7.11;81.91;101878.09;5118517;27;45236;-64
2023/03/05 03:54:20;;;;;;;;;23.00;19.33;;;;;7.06;81.92;101870.19;5119304;27;45700;-64
2023/03/05 03:56:46;;;;;;;;;12.00;12.00;;;;;7.03;81.16;101871.88;5118716;27;45595;-64
2023/03/05 03:59:12;;;;;;;;;14.00;13.00;;;;;7.04;81.57;101879.75;5118714;27;45220;-64
2023/03/05 04:01:38;;;;;;;;;15.00;13.33;;;;;6.88;82.12;101852.53;5118576;27;45409;-64
2023/03/05 04:04:04;;;;;;;;;12.67;12.00;;;;;6.94;82.38;101852.63;5119055;27;45394;-64
2023/03/05 04:06:29;;;;;;;;;15.67;14.00;;;;;7.00;82.02;101850.91;5118275;27;46091;-64
2023/03/05 04:08:54;;;;;;;;;14.67;11.00;;;;;6.96;81.88;101836.94;5118455;27;45511;-64
2023/03/05 04:11:20;;;;;;;;;10.00;10.00;;;;;7.08;81.16;101849.25;5118630;27;45433;-64
2023/03/05 04:13:46;;;;;;;;;11.00;9.00;;;;;7.03;81.22;101854.47;5118743;27;45445;-64
2023/03/05 04:16:12;;;;;;;;;12.00;11.00;;;;;7.06;81.18;101851.00;5118491;27;45373;-63
2023/03/05 04:18:38;;;;;;;;;9.00;9.00;;;;;7.07;81.11;101844.88;5118471;27;45437;-63
2023/03/05 04:21:04;;;;;;;;;11.67;10.33;;;;;7.06;80.90;101840.53;5118296;27;45456;-64
2023/03/05 04:23:30;;;;;;;;;12.67;10.00;;;;;7.14;80.57;101847.59;5118638;27;45547;-64
2023/03/05 04:25:55;;;;;;;;;10.33;9.00;;;;;7.12;80.66;101844.06;5117977;27;45511;-64
2023/03/05 04:28:21;;;;;;;;;10.00;9.33;;;;;7.19;80.31;101851.97;5118137;27;45449;-64
2023/03/05 04:30:46;;;;;;;;;9.33;9.00;;;;;7.15;80.67;101841.47;5118279;27;45349;-64
2023/03/05 04:33:12;;;;;;;;;10.00;8.67;;;;;7.18;80.60;101848.47;5118012;27;45464;-64
2023/03/05 04:35:37;;;;;;;;;8.33;8.00;;;;;7.21;79.98;101847.63;5118161;27;45584;-65
2023/03/05 04:38:02;;;;;;;;;10.00;10.00;;;;;6.95;79.90;101806.38;5118134;27;45362;-64
2023/03/05 04:40:28;;;;;;;;;11.33;10.00;;;;;7.17;80.22;101841.47;5118335;27;45770;-64
2023/03/05 04:42:53;;;;;;;;;13.33;10.67;;;;;7.14;80.21;101834.50;5120449;27;45406;-64
2023/03/05 04:45:18;;;;;;;;;14.33;11.00;;;;;7.07;80.33;101824.81;5121694;27;46468;-64
2023/03/05 04:47:44;;;;;;;;;17.00;12.33;;;;;7.07;80.23;101819.59;5121689;27;45435;-64
2023/03/05 04:50:11;;;;;;;;;15.00;10.33;;;;;7.19;79.84;101834.53;5121486;27;45487;-64
2023/03/05 04:52:40;;;;;;;;;27.00;16.67;;;;;7.14;80.12;101828.34;5121861;27;45191;-64
2023/03/05 04:55:07;;;;;;;;;22.67;18.33;;;;;7.18;80.34;101829.28;5121418;27;46317;-64
2023/03/05 04:57:32;;;;;;;;;18.33;12.33;;;;;7.09;79.94;101814.38;5121102;27;45294;-64
2023/03/05 04:59:58;;;;;;;;;20.33;14.67;;;;;7.15;80.27;101819.66;5121515;27;45303;-64
2023/03/05 05:02:23;;;;;;;;;15.67;14.00;;;;;7.13;79.45;101819.63;5121396;27;45446;-64
2023/03/05 05:04:54;;;;;;;;;20.33;14.33;;;;;6.88;80.15;101776.63;5121185;27;45711;-64
2023/03/05 05:07:20;;;;;;;;;15.67;12.00;;;;;7.12;80.36;101811.75;5121164;27;45296;-64
2023/03/05 05:09:45;;;;;;;;;16.33;12.00;;;;;7.15;79.79;101815.28;5121659;27;45456;-64
2023/03/05 05:12:11;;;;;;;;;15.33;11.00;;;;;7.07;79.44;101801.25;5121361;27;45406;-64
2023/03/05 05:14:36;;;;;;;;;13.33;11.67;;;;;7.07;79.65;101806.50;5120762;27;45440;-64
2023/03/05 05:17:05;;;;;;;;;16.67;11.00;;;;;6.97;79.79;101807.25;5126617;27;45421;-64
2023/03/05 05:19:32;;;;;;;;;16.67;13.67;;;;;6.88;80.36;101808.03;5122699;27;45420;-64
2023/03/05 05:21:57;;;;;;;;;17.00;14.67;;;;;6.79;81.20;101802.72;5121545;27;45565;-64
2023/03/05 05:24:23;;;;;;;;;16.33;16.00;;;;;6.45;81.83;101744.81;5120595;27;47020;-64
2023/03/05 05:26:48;;;;;;;;;17.00;12.67;;;;;6.79;81.44;101793.13;5120155;27;45411;-64
2023/03/05 05:29:14;;;;;;;;;11.33;11.33;;;;;6.82;80.86;101787.03;5129060;27;45439;-64
2023/03/05 05:31:39;;;;;;;;;17.67;13.33;;;;;6.90;81.13;101795.00;5121347;27;45426;-64
2023/03/05 05:34:04;;;;;;;;;67.00;53.50;;;;;6.93;80.96;101803.72;5120762;27;45268;-64
2023/03/05 05:36:30;;;;;;;;;17.00;17.00;;;;;6.90;80.96;101798.47;5121006;27;45376;-64
2023/03/05 05:38:55;;;;;;;;;14.33;13.00;;;;;6.99;80.86;101808.16;5120969;27;45467;-64
2023/03/05 05:41:20;;;;;;;;;11.00;11.00;;;;;6.97;80.87;101795.06;5120663;27;45423;-64
2023/03/05 05:43:46;;;;;;;;;11.00;11.00;;;;;7.03;80.58;101807.31;5120741;27;45551;-64
2023/03/05 05:46:15;;;;;;;;;11.00;9.00;;;;;7.04;80.21;101802.94;5120651;27;45438;-64
2023/03/05 05:48:41;;;;;;;;;10.33;6.33;;;;;7.04;79.80;101801.19;5120812;27;45548;-64
2023/03/05 05:51:09;;;;;;;;;12.00;8.67;;;;;6.97;80.30;101791.53;5120737;27;45422;-64
2023/03/05 05:53:34;;;;;;;;;12.33;10.33;;;;;7.01;79.81;101805.53;5119248;27;45728;-64
2023/03/05 05:56:00;;;;;;;;;8.00;7.67;;;;;6.83;80.48;101774.84;5120745;27;46639;-64
2023/03/05 05:58:25;;;;;;;;;11.33;8.00;;;;;6.92;80.39;101798.50;5120406;27;45839;-64
2023/03/05 06:00:50;;;;;;;;;20.33;17.00;;;;;6.92;79.63;101790.63;5120209;27;45392;-64
2023/03/05 06:03:16;;;;;;;;;6.00;6.00;;;;;6.93;79.72;101798.50;5120252;27;46340;-64
2023/03/05 06:05:42;;;;;;;;;7.00;5.00;;;;;6.89;79.93;101791.47;5120602;27;45263;-64
2023/03/05 06:08:08;;;;;;;;;5.00;5.00;;;;;6.71;79.37;101754.66;5120478;27;45297;-64
2023/03/05 06:10:33;;;;;;;;;7.67;6.33;;;;;6.90;80.00;101784.50;5120161;27;45265;-64
2023/03/05 06:12:59;;;;;;;;;10.00;6.67;;;;;6.89;79.76;101783.63;5120082;27;45575;-64
2023/03/05 06:15:24;;;;;;;;;5.33;3.67;;;;;6.91;79.50;101786.25;5120315;27;45457;-64
2023/03/05 06:17:49;;;;;;;;;7.33;6.33;;;;;6.91;79.80;101787.16;5119958;27;45560;-64
2023/03/05 06:20:15;;;;;;;;;5.00;5.00;;;;;6.92;79.46;101793.25;5120252;27;45411;-64
2023/03/05 06:22:40;;;;;;;;;6.33;5.00;;;;;6.88;79.42;101787.09;5119883;27;46484;-64
2023/03/05 06:25:07;;;;;;;;;3.33;3.33;;;;;6.92;79.24;101791.50;5120021;27;45253;-64
2023/03/05 06:27:34;;;;;;;;;3.00;2.00;;;;;6.90;79.15;101789.75;5120474;27;45458;-64
2023/03/05 06:29:59;;;;;;;;;6.00;6.00;;;;;6.68;79.47;101754.63;5120411;27;45315;-64
2023/03/05 06:32:25;;;;;;;;;3.33;3.00;;;;;6.90;79.57;101787.13;5119801;27;45294;-64
2023/03/05 06:34:51;;;;;;;;;6.00;5.33;;;;;6.91;80.02;101795.00;5120039;27;45724;-64
2023/03/05 06:37:16;;;;;;;;;3.67;3.67;;;;;6.90;79.71;101784.50;5119730;27;45481;-64
2023/03/05 06:39:42;;;;;;;;;6.67;4.33;;;;;6.82;80.10;101768.72;5120189;27;45358;-64
2023/03/05 06:42:08;;;;;;;;;8.00;7.67;;;;;6.91;80.42;101781.91;5119312;27;46479;-64
2023/03/05 06:44:36;;;;;;;;;6.00;5.00;;;;;6.93;80.61;101781.94;5119660;27;45272;-64
2023/03/05 06:47:04;;;;;;;;;6.33;4.00;;;;;6.92;79.76;101778.41;5119826;27;46402;-64
2023/03/05 06:49:29;;;;;;;;;5.67;5.00;;;;;6.94;80.49;101778.41;5119903;27;45357;-64
2023/03/05 06:51:54;;;;;;;;;5.00;4.00;;;;;6.90;80.61;101769.66;5119621;27;46611;-64
2023/03/05 06:54:20;;;;;;;;;9.33;6.33;;;;;6.88;79.98;101776.63;5119465;27;46526;-64
2023/03/05 06:56:46;;;;;;;;;4.67;3.33;;;;;6.77;79.69;101760.81;5119620;27;45475;-64
2023/03/05 06:59:13;;;;;;;;;4.33;4.33;;;;;6.78;80.95;101765.22;5119716;27;45561;-64
2023/03/05 07:01:38;;;;;;;;;6.67;4.33;;;;;6.88;81.00;101776.63;5119209;27;46170;-64
2023/03/05 07:04:04;;;;;;;;;3.00;3.00;;;;;6.82;80.89;101760.88;5119366;27;45338;-64
2023/03/05 07:06:35;;;;;;;;;3.67;3.67;;;;;6.91;80.37;101776.69;5119408;27;45364;-64
2023/03/05 07:09:02;;;;;;;;;7.67;4.00;;;;;6.93;80.77;101780.16;5119474;27;45407;-64
2023/03/05 07:11:28;;;;;;;;;3.67;3.00;;;;;6.91;80.44;101776.69;5112130;27;46187;-64
2023/03/05 07:13:54;;;;;;;;;4.67;4.67;;;;;6.88;81.19;101774.00;5118311;27;45381;-64
2023/03/05 07:16:25;;;;;;;;;5.00;3.00;;;;;6.90;80.47;101767.06;5119511;27;45543;-64
2023/03/05 07:18:51;;;;;;;;;4.67;3.67;;;;;7.01;80.11;101774.13;5119982;27;45202;-64
2023/03/05 07:21:27;;;;;;;;;6.67;6.67;;;;;6.93;80.32;101761.84;5119070;27;46206;-64
2023/03/05 07:23:53;;;;;;;;;5.00;4.00;;;;;6.85;80.51;101736.47;5118797;27;45320;-64
2023/03/05 07:26:19;;;;;;;;;6.00;3.67;;;;;7.10;79.79;101768.94;5119269;27;45686;-64
2023/03/05 07:28:44;;;;;;;;;8.00;4.33;;;;;7.07;80.02;101761.97;5119086;27;45630;-64
2023/03/05 07:31:13;;;;;;;;;5.00;4.00;;;;;7.02;79.64;101747.94;5118989;27;46506;-64
2023/03/05 07:33:38;;;;;;;;;9.33;8.33;;;;;7.04;80.39;101755.81;5118708;27;45794;-64
2023/03/05 07:36:07;;;;;;;;;4.33;4.33;;;;;7.03;79.12;101752.34;5118963;27;45343;-64
2023/03/05 07:38:32;;;;;;;;;7.33;4.00;;;;;7.00;80.21;101752.31;5119633;27;45354;-64
2023/03/05 07:41:07;;;;;;;;;5.00;5.00;;;;;7.11;79.67;101758.47;5118754;27;46627;-64
2023/03/05 07:43:32;;;;;;;;;9.33;6.00;;;;;7.11;79.45;101752.38;5118413;27;45496;-64
2023/03/05 07:45:58;;;;;;;;;7.33;7.33;;;;;7.15;80.18;101755.03;5119019;27;45346;-64
2023/03/05 07:48:24;;;;;;;;;13.33;10.00;;;;;7.14;79.44;101742.81;5118936;27;45444;-64
2023/03/05 07:50:49;;;;;;;;;9.00;7.00;;;;;7.14;78.46;101739.31;5118741;27;46512;-64
2023/03/05 07:53:15;;;;;;;;;8.67;6.33;;;;;7.19;78.63;101752.44;5118404;27;45398;-64
2023/03/05 07:55:45;;;;;;;;;6.33;5.00;;;;;7.17;78.84;101747.19;5118582;27;45895;-64
2023/03/05 07:58:11;;;;;;;;;5.33;5.00;;;;;7.15;78.94;101749.78;5119371;27;45277;-64
2023/03/05 08:00:37;;;;;;;;;5.00;5.00;;;;;7.09;79.17;101735.78;5118595;27;46541;-64
2023/03/05 08:03:03;;;;;;;;;4.25;4.00;;;;;7.14;78.11;101736.69;5118195;27;45371;-64
2023/03/05 08:05:28;;;;;;;;;8.00;6.67;;;;;7.10;79.00;101737.53;5118682;27;45402;-64
2023/03/05 08:07:53;;;;;;;;;10.33;8.00;;;;;7.10;79.69;101729.66;5118711;27;45310;-64
2023/03/05 08:10:19;;;;;;;;;4.00;4.00;;;;;7.13;79.16;101716.59;5118549;27;46181;-64
2023/03/05 08:12:44;;;;;;;;;5.67;4.67;;;;;7.21;78.90;101729.75;5117932;27;45534;-64
2023/03/05 08:15:10;;;;;;;;;4.33;4.33;;;;;7.14;78.82;101718.34;5119263;27;46557;-64
2023/03/05 08:17:35;;;;;;;;;3.67;3.00;;;;;7.24;78.57;101724.53;5120496;27;45499;-64
2023/03/05 08:20:04;;;;;;;;;9.33;5.00;;;;;7.25;79.23;101718.44;5122501;27;46071;-64
2023/03/05 08:22:32;;;;;;;;;4.00;1.00;;;;;7.35;78.73;101725.50;5126433;27;45278;-64
2023/03/05 08:24:58;;;;;;;;;7.67;5.67;;;;;7.39;78.10;101723.75;5123514;27;45936;-64
2023/03/05 08:27:23;;;;;;;;;8.00;5.33;;;;;7.41;78.25;101724.66;5122380;27;45398;-64
2023/03/05 08:29:48;;;;;;;;;10.00;8.33;;;;;7.43;78.79;101721.16;5121336;27;46683;-64
2023/03/05 08:32:14;;;;;;;;;9.67;9.67;;;;;7.59;78.46;101726.50;5121936;27;45392;-64
2023/03/05 08:34:39;;;;;;;;;7.00;6.00;;;;;7.65;78.40;101723.91;5122156;27;45349;-64
2023/03/05 08:37:06;;;;;;;;;5.00;5.00;;;;;7.70;78.41;101723.91;5121791;27;45314;-64
2023/03/05 08:39:32;;;;;;;;;8.67;6.00;;;;;7.74;77.88;101723.06;5121229;27;45542;-64
2023/03/05 08:41:57;;;;;;;;;38.67;36.33;;;;;7.58;77.36;101688.94;5121598;27;45373;-64
2023/03/05 08:44:22;;;;;;;;;13.33;11.00;;;;;7.77;77.23;101717.84;5121775;27;45958;-64
2023/03/05 08:46:48;;;;;;;;;12.00;7.33;;;;;7.78;77.72;101709.13;5120324;27;45586;-64
2023/03/05 08:49:13;;;;;;;;;5.00;5.00;;;;;7.76;77.38;101705.63;5121144;27;45559;-64
2023/03/05 08:51:38;;;;;;;;;3.75;3.25;;;;;7.82;76.58;101708.25;5121647;27;45500;-64
2023/03/05 08:54:06;;;;;;;;;8.33;4.00;;;;;7.81;76.35;101699.53;5121400;27;45378;-64
2023/03/05 08:56:33;;;;;;;;;4.67;4.00;;;;;7.89;76.47;101717.03;5121823;27;45321;-64
2023/03/05 08:58:58;;;;;;;;;5.00;5.00;;;;;7.88;76.63;101708.28;5121131;27;46600;-64
2023/03/05 09:01:24;;;;;;;;;6.00;6.00;;;;;7.90;76.43;101695.16;5121267;27;45518;-64
2023/03/05 09:03:49;;;;;;;;;11.00;10.00;;;;;8.08;76.38;101699.63;5121556;27;45447;-64
2023/03/05 09:06:15;;;;;;;;;5.00;5.00;;;;;8.24;76.55;101704.03;5121386;27;45512;-64
2023/03/05 09:08:40;;;;;;;;;5.00;5.00;;;;;8.33;75.58;101698.78;5124797;27;45728;-64
2023/03/05 09:11:08;;;;;;;;;10.00;6.00;;;;;8.34;75.94;101695.31;5125492;27;45414;-64
2023/03/05 09:13:34;;;;;;;;;5.00;5.00;;;;;8.44;75.56;101693.59;5121200;27;45575;-64
2023/03/05 09:16:02;;;;;;;;;4.00;4.00;;;;;8.49;75.29;101685.72;5121320;27;45223;-64
2023/03/05 09:18:29;;;;;;;;;6.00;4.00;;;;;8.53;74.60;101674.38;5120740;27;46015;-64
2023/03/05 09:20:54;;;;;;;;;5.00;5.00;;;;;8.60;74.26;101678.75;5120856;27;45809;-64
2023/03/05 09:23:20;;;;;;;;;4.00;4.00;;;;;8.69;73.64;101693.63;5121113;27;45464;-64
2023/03/05 09:25:45;;;;;;;;;7.00;7.00;;;;;8.72;73.30;101683.13;5120909;27;45329;-64
2023/03/05 09:28:11;;;;;;;;;2.67;2.67;;;;;8.74;73.02;101683.13;5120641;27;46238;-64
2023/03/05 09:30:37;;;;;;;;;6.33;6.33;;;;;8.73;72.47;101681.34;5120917;27;45219;-64
2023/03/05 09:33:02;;;;;;;;;5.00;5.00;;;;;8.71;72.66;101666.50;5121067;27;45459;-64
2023/03/05 09:35:29;;;;;;;;;6.00;6.00;;;;;8.78;73.19;101682.25;5121655;27;45357;-64
2023/03/05 09:37:54;;;;;;;;;4.00;4.00;;;;;8.82;72.44;101684.00;5124104;27;48153;-64
2023/03/05 09:40:21;;;;;;;;;4.00;4.00;;;;;8.83;72.45;101681.38;5124514;27;45468;-64
2023/03/05 09:42:52;;;;;;;;;5.00;5.00;;;;;8.83;73.00;101678.75;5121491;27;45527;-64
2023/03/05 09:45:43;;;;;;;;;4.33;4.00;;;;;8.83;72.67;101670.88;5127959;27;45215;-64
2023/03/05 09:48:23;;;;;;;;;10.00;10.00;;;;;8.80;72.34;101670.88;5114931;27;46578;-65
2023/03/05 09:51:00;;;;;;;;;10.67;6.00;;;;;8.73;72.83;101658.63;5120973;27;45218;-64
2023/03/05 09:53:37;;;;;;;;;7.67;7.67;;;;;8.78;72.63;101674.38;5120587;27;45172;-65
2023/03/05 09:56:24;;;;;;;;;11.00;7.00;;;;;8.70;72.68;101669.13;5114120;27;45449;-64
2023/03/05 09:58:57;;;;;;;;;7.00;7.00;;;;;8.65;72.10;101660.38;5120421;27;46223;-64
2023/03/05 10:01:30;;;;;;;;;12.00;11.67;;;;;8.60;71.66;101656.88;5119964;27;45379;-64
2023/03/05 10:03:56;;;;;;;;;8.33;7.00;;;;;8.62;72.22;101661.22;5128303;27;45464;-64
2023/03/05 10:06:35;;;;;;;;;14.00;12.00;;;;;8.54;71.32;101655.13;5120646;27;45545;-64
2023/03/05 10:09:15;;;;;;;;;13.00;9.33;;;;;8.63;70.94;101667.38;5120319;27;46463;-64
2023/03/05 10:11:44;;;;;;;;;11.33;10.67;;;;;8.63;70.62;101659.50;5119546;27;45243;-65
2023/03/05 10:14:16;;;;;;;;;13.00;11.67;;;;;8.68;71.09;101661.25;5119834;27;45358;-65
2023/03/05 10:17:02;;;;;;;;;11.67;10.33;;;;;8.71;71.14;101656.00;5120334;27;45291;-65
2023/03/05 10:19:42;;;;;;;;;7.00;7.00;;;;;8.81;70.17;101656.84;5120013;27;45414;-65
2023/03/05 10:22:13;;;;;;;;;6.00;5.00;;;;;8.87;69.94;101661.22;5119965;27;45509;-64
2023/03/05 10:24:57;;;;;;;;;20.67;18.67;;;;;8.84;69.05;101655.97;5120100;27;45529;-64
2023/03/05 10:27:45;;;;;;;;;8.00;6.00;;;;;8.73;68.65;101642.88;5120559;27;45562;-65
2023/03/05 10:30:22;;;;;;;;;6.00;6.00;;;;;8.79;69.15;101663.00;5119757;27;46467;-65
2023/03/05 10:33:12;;;;;;;;;6.00;6.00;;;;;8.71;68.04;101661.25;5119705;27;45432;-65
2023/03/05 10:35:46;;;;;;;;;9.00;6.67;;;;;8.62;67.73;101655.97;5112742;27;45290;-65
2023/03/05 10:38:30;;;;;;;;;10.00;8.33;;;;;8.54;68.59;101655.13;5119955;27;45373;-64
2023/03/05 10:40:59;;;;;;;;;6.33;6.33;;;;;8.47;69.06;101656.88;5117635;27;46499;-65
2023/03/05 10:43:48;;;;;;;;;14.00;10.00;;;;;8.42;68.69;101648.06;5119671;27;45775;-64
2023/03/05 10:46:20;;;;;;;;;10.67;7.67;;;;;8.41;68.51;101642.81;5120121;27;45472;-64
2023/03/05 10:48:51;;;;;;;;;10.67;9.67;;;;;8.27;68.62;101616.59;5119885;27;45451;-63
2023/03/05 10:51:32;;;;;;;;;6.00;5.33;;;;;8.30;67.70;101625.31;5119254;27;45437;-63
2023/03/05 10:54:06;;;;;;;;;6.00;4.67;;;;;8.32;67.83;101627.94;5112335;27;45351;-63
2023/03/05 10:56:31;;;;;;;;;27.67;24.33;;;;;8.16;67.74;101630.56;5119503;27;45517;-63
2023/03/05 10:58:57;;;;;;;;;26.67;21.00;;;;;8.16;68.13;101617.44;5119432;27;45523;-64
2023/03/05 11:01:25;;;;;;;;;5.00;5.00;;;;;8.23;67.36;101625.31;5119225;27;45544;-64
2023/03/05 11:03:58;;;;;;;;;9.67;8.67;;;;;8.22;66.95;101624.44;5118713;27;45439;-64
2023/03/05 11:06:26;;;;;;;;;14.00;10.67;;;;;8.22;67.31;101621.84;5119173;27;45644;-64
2023/03/05 11:08:51;;;;;;;;;10.00;9.00;;;;;8.21;67.61;101619.22;5119759;27;45520;-64
2023/03/05 11:11:19;;;;;;;;;19.33;16.00;;;;;8.17;67.66;101618.31;5119287;27;45364;-65
2023/03/05 11:13:55;;;;;;;;;11.33;10.00;;;;;8.17;68.02;101618.31;5119421;27;45458;-64
2023/03/05 11:16:25;;;;;;;;;12.67;10.33;;;;;8.16;67.93;101617.44;5118811;27;45341;-64
2023/03/05 11:19:15;;;;;;;;;11.00;10.67;;;;;8.15;68.56;101618.31;5119333;27;45346;-62
2023/03/05 11:21:43;;;;;;;;;17.67;11.00;;;;;8.05;68.08;101594.72;5114496;27;46503;-60
2023/03/05 11:24:17;;;;;;;;;11.33;11.00;;;;;8.15;67.89;101609.59;5118898;27;45577;-60
2023/03/05 11:26:50;;;;;;;;;13.00;11.67;;;;;8.16;67.99;101606.97;5117710;27;45244;-62